Time;durP1;ratioP1;P1;durP2;ratioP2;P2;SDS_P1;SDS_P2;PMS_P1;PMS_P2;Temp;Humidity;BMP_temperature;BMP_pressure;BME280_temperature;BME280_humidity;BME280_pressure;Samples;Min_cycle;Max_cycle;Signal;HPM_P1;HPM_P2
2023/05/31 00:01:20;;;;;;;7.70;4.32;;;;;;;12.09;84.80;100010.59;5099790;28;20508;-64
2023/05/31 00:03:47;;;;;;;11.93;4.05;;;;;;;12.01;85.08;99999.38;5097929;28;20051;-64
2023/05/31 00:06:14;;;;;;;9.15;3.85;;;;;;;11.84;86.22;100002.72;5099956;28;20120;-64
2023/05/31 00:08:42;;;;;;;10.07;4.28;;;;;;;11.88;85.40;99997.72;5099247;28;20044;-63
2023/05/31 00:11:08;;;;;;;7.82;4.30;;;;;;;11.89;86.08;99987.81;5098385;28;20048;-63
2023/05/31 00:13:38;;;;;;;12.38;4.50;;;;;;;11.94;85.87;100004.84;5097161;28;20039;-63
2023/05/31 00:16:05;;;;;;;13.32;4.47;;;;;;;11.95;85.71;100002.97;5092692;28;20105;-63
2023/05/31 00:18:32;;;;;;;9.38;3.88;;;;;;;12.00;86.48;99997.72;5091280;28;20036;-63
2023/05/31 00:20:59;;;;;;;12.40;4.20;;;;;;;11.91;86.08;100002.66;5102389;28;20055;-63
2023/05/31 00:23:26;;;;;;;7.28;4.25;;;;;;;11.85;86.53;100001.66;5096854;28;20171;-63
2023/05/31 00:25:53;;;;;;;11.50;4.50;;;;;;;11.90;86.51;100002.88;5097419;28;20059;-63
2023/05/31 00:28:20;;;;;;;9.82;4.05;;;;;;;11.55;88.17;100009.78;5095327;28;20060;-63
2023/05/31 00:30:48;;;;;;;15.38;4.68;;;;;;;11.40;89.12;100012.06;5100372;28;20039;-63
2023/05/31 00:33:15;;;;;;;10.70;4.50;;;;;;;11.38;89.99;100015.00;5103679;28;20055;-62
2023/05/31 00:35:45;;;;;;;11.70;4.28;;;;;;;11.40;90.59;100009.38;5097578;28;20047;-63
2023/05/31 00:38:13;;;;;;;14.68;5.10;;;;;;;11.51;89.65;100003.25;5103877;28;20051;-63
2023/05/31 00:40:40;;;;;;;10.38;4.28;;;;;;;11.55;90.30;99999.03;5093831;28;20501;-63
2023/05/31 00:43:07;;;;;;;8.20;4.53;;;;;;;11.53;89.59;100003.84;5096900;28;20459;-63
2023/05/31 00:45:34;;;;;;;12.18;4.35;;;;;;;11.70;90.84;100011.22;5098943;28;20062;-63
2023/05/31 00:48:03;;;;;;;10.77;4.30;;;;;;;11.47;89.60;99998.56;5103584;28;20383;-63
2023/05/31 00:50:30;;;;;;;11.52;4.13;;;;;;;11.41;90.23;100009.16;5097756;28;20035;-63
2023/05/31 00:52:57;;;;;;;10.65;4.22;;;;;;;11.42;91.88;100010.78;5103722;28;21752;-64
2023/05/31 00:55:24;;;;;;;11.73;4.60;;;;;;;11.35;90.32;100002.00;5095246;28;20525;-64
2023/05/31 00:57:52;;;;;;;9.40;4.32;;;;;;;11.32;91.58;100007.84;5098684;28;20452;-64
2023/05/31 01:00:19;;;;;;;10.50;4.25;;;;;;;11.34;91.11;99997.69;5095576;28;20470;-64
2023/05/31 01:02:46;;;;;;;10.93;4.30;;;;;;;11.32;92.33;100010.53;5102100;28;20127;-64
2023/05/31 01:05:14;;;;;;;11.55;4.72;;;;;;;11.27;92.38;100004.22;5101629;28;20112;-64
2023/05/31 01:07:41;;;;;;;8.60;4.25;;;;;;;11.17;92.92;100002.88;5103367;28;20450;-64
2023/05/31 01:10:08;;;;;;;12.55;4.38;;;;;;;11.11;93.72;100000.31;5098909;28;20050;-64
2023/05/31 01:12:41;;;;;;;7.70;4.20;;;;;;;11.21;93.81;100008.63;5098419;28;20118;-64
2023/05/31 01:15:11;;;;;;;12.35;4.78;;;;;;;11.23;94.05;100014.56;5094619;28;20497;-64
2023/05/31 01:17:44;;;;;;;9.00;4.05;;;;;;;11.07;94.43;100013.34;5136869;27;20077;-64
2023/05/31 01:20:15;;;;;;;10.07;4.55;;;;;;;11.16;94.23;100013.84;5095574;28;20080;-64
2023/05/31 01:22:57;;;;;;;10.32;4.50;;;;;;;11.08;94.75;100006.09;5094597;28;20845;-64
2023/05/31 01:25:32;;;;;;;9.63;4.10;;;;;;;11.16;93.91;100000.44;5100743;28;20101;-64
2023/05/31 01:28:01;;;;;;;8.65;4.57;;;;;;;11.14;95.11;100002.53;5092517;28;20402;-64
2023/05/31 01:30:28;;;;;;;9.70;4.22;;;;;;;11.10;95.00;100001.34;5092146;28;20107;-64
2023/05/31 01:32:56;;;;;;;10.68;4.55;;;;;;;11.09;95.06;99999.72;5100641;28;20075;-64
2023/05/31 01:35:23;;;;;;;10.18;4.28;;;;;;;11.01;95.22;99998.97;5101793;28;20084;-64
2023/05/31 01:37:50;;;;;;;9.70;4.43;;;;;;;11.09;96.50;100005.88;5100844;28;20040;-64
2023/05/31 01:40:17;;;;;;;9.23;4.30;;;;;;;11.01;96.22;100003.53;5099736;28;20046;-64
2023/05/31 01:42:44;;;;;;;9.68;4.78;;;;;;;10.90;96.57;100001.59;5092257;28;20040;-64
2023/05/31 01:45:13;;;;;;;10.07;4.40;;;;;;;10.87;96.40;100002.88;5101791;28;20048;-64
2023/05/31 01:47:40;;;;;;;9.52;5.03;;;;;;;11.00;96.83;100002.69;5103540;28;20542;-64
2023/05/31 01:50:08;;;;;;;10.13;4.43;;;;;;;10.90;97.03;100002.41;5103793;28;20035;-64
2023/05/31 01:52:35;;;;;;;8.63;4.35;;;;;;;10.80;96.78;100007.47;5105405;28;20126;-64
2023/05/31 01:55:02;;;;;;;9.02;4.50;;;;;;;10.72;97.27;100005.13;5099766;28;20077;-64
2023/05/31 01:57:31;;;;;;;9.57;4.68;;;;;;;10.67;99.58;100008.47;5101180;28;20043;-64
2023/05/31 01:59:59;;;;;;;12.43;5.10;;;;;;;10.64;99.57;100014.28;5098709;28;20148;-64
2023/05/31 02:02:28;;;;;;;9.93;5.00;;;;;;;10.71;99.43;100008.84;5096681;28;20044;-64
2023/05/31 02:05:05;;;;;;;10.60;4.43;;;;;;;10.71;99.32;100012.34;5102628;27;20319;-64
2023/05/31 02:07:32;;;;;;;9.68;4.85;;;;;;;10.92;98.79;99999.50;5115177;27;20484;-64
2023/05/31 02:09:59;;;;;;;10.20;4.82;;;;;;;10.93;97.92;100007.34;5106930;28;20448;-64
2023/05/31 02:12:26;;;;;;;12.48;5.93;;;;;;;10.82;97.85;100005.41;5096687;28;20052;-64
2023/05/31 02:14:54;;;;;;;11.02;5.28;;;;;;;10.76;99.03;100011.69;5104902;28;20457;-64
2023/05/31 02:17:23;;;;;;;11.25;5.28;;;;;;;10.79;99.00;100013.91;5099858;28;20055;-64
2023/05/31 02:19:52;;;;;;;13.98;5.00;;;;;;;10.65;98.48;100010.53;5106446;28;20134;-64
2023/05/31 02:22:19;;;;;;;13.35;4.63;;;;;;;10.63;98.53;100006.44;5094574;28;20093;-64
2023/05/31 02:24:46;;;;;;;7.85;4.90;;;;;;;10.66;98.35;100011.34;5100908;28;20060;-64
2023/05/31 02:27:13;;;;;;;14.35;5.07;;;;;;;10.63;99.14;100011.81;5107456;28;20039;-64
2023/05/31 02:29:40;;;;;;;9.88;4.57;;;;;;;10.61;99.11;100013.88;5106687;28;20532;-64
2023/05/31 02:32:07;;;;;;;9.02;4.80;;;;;;;10.50;98.47;100018.94;5098568;28;20064;-64
2023/05/31 02:34:34;;;;;;;15.95;5.47;;;;;;;10.27;98.68;100021.44;5103099;28;20509;-64
2023/05/31 02:37:03;;;;;;;10.60;4.88;;;;;;;10.13;100.00;100021.56;5099310;28;20084;-64
2023/05/31 02:39:30;;;;;;;7.50;4.80;;;;;;;10.13;100.00;100024.25;5104901;28;20542;-64
2023/05/31 02:41:57;;;;;;;8.52;4.88;;;;;;;10.26;100.00;100027.81;5095840;28;20077;-64
2023/05/31 02:44:24;;;;;;;10.82;5.13;;;;;;;10.21;100.00;100023.16;5105829;28;20039;-64
2023/05/31 02:46:52;;;;;;;8.20;5.05;;;;;;;10.09;100.00;100016.88;5101544;28;20035;-64
2023/05/31 02:49:19;;;;;;;10.68;4.75;;;;;;;10.11;100.00;100014.81;5096041;28;20135;-64
2023/05/31 02:51:46;;;;;;;10.20;4.57;;;;;;;9.84;100.00;100008.84;5101256;28;20581;-64
2023/05/31 02:54:43;;;;;;;9.00;4.35;;;;;;;9.83;100.00;100007.19;5102616;28;20036;-64
2023/05/31 02:57:15;;;;;;;10.35;5.55;;;;;;;9.97;100.00;99994.53;5101676;28;20043;-64
2023/05/31 02:59:44;;;;;;;9.93;4.90;;;;;;;9.87;100.00;100003.03;5102512;28;20068;-63
2023/05/31 03:02:11;;;;;;;12.00;5.45;;;;;;;9.80;100.00;100004.94;5101447;28;20043;-63
2023/05/31 03:04:54;;;;;;;11.30;5.13;;;;;;;10.00;100.00;100002.09;5099460;28;20123;-63
2023/05/31 03:07:22;;;;;;;8.85;5.22;;;;;;;9.96;100.00;100000.91;5101363;28;20048;-63
2023/05/31 03:09:52;;;;;;;14.00;5.25;;;;;;;9.93;100.00;100000.31;5103717;28;20398;-63
2023/05/31 03:12:19;;;;;;;9.02;5.20;;;;;;;9.87;100.00;99998.50;5096012;28;20143;-63
2023/05/31 03:14:48;;;;;;;11.40;5.20;;;;;;;9.88;100.00;99999.31;5099943;28;20047;-63
2023/05/31 03:17:15;;;;;;;9.60;4.80;;;;;;;9.90;100.00;99998.06;5078270;28;20491;-63
2023/05/31 03:19:42;;;;;;;7.30;4.53;;;;;;;9.84;100.00;100003.50;5098805;28;20048;-63
2023/05/31 03:22:10;;;;;;;8.88;4.88;;;;;;;9.74;100.00;99997.81;5100407;28;20052;-65
2023/05/31 03:24:37;;;;;;;11.52;5.22;;;;;;;9.89;100.00;100000.97;5100870;28;20040;-63
2023/05/31 03:27:09;;;;;;;11.27;4.50;;;;;;;9.59;100.00;100004.28;5105765;28;20120;-63
2023/05/31 03:29:37;;;;;;;9.88;4.53;;;;;;;9.59;100.00;100006.97;5099523;28;22618;-63
2023/05/31 03:32:06;;;;;;;9.88;5.22;;;;;;;9.68;100.00;99997.66;5097782;28;20032;-63
2023/05/31 03:34:34;;;;;;;10.43;5.18;;;;;;;9.62;100.00;99995.81;5097346;28;20086;-65
2023/05/31 03:37:02;;;;;;;12.15;5.47;;;;;;;10.05;100.00;99996.91;5089579;28;20054;-63
2023/05/31 03:39:39;;;;;;;8.35;4.88;;;;;;;10.19;100.00;100001.13;5096458;28;20174;-63
2023/05/31 03:42:10;;;;;;;8.65;4.15;;;;;;;10.85;97.08;100009.50;5101775;28;20123;-63
2023/05/31 03:44:37;;;;;;;11.93;5.13;;;;;;;11.64;93.10;100010.28;5098586;27;20353;-63
2023/05/31 03:47:07;;;;;;;10.68;4.80;;;;;;;12.18;87.11;100010.22;5103465;28;20055;-63
2023/05/31 03:49:36;;;;;;;9.77;4.38;;;;;;;12.36;88.69;100014.69;5099462;28;20040;-63
2023/05/31 03:52:03;;;;;;;10.07;4.50;;;;;;;12.08;87.79;100016.19;5095681;28;20031;-63
2023/05/31 03:54:30;;;;;;;7.90;4.40;;;;;;;12.09;87.89;100010.59;5094047;28;20044;-62
2023/05/31 03:56:58;;;;;;;8.30;4.35;;;;;;;13.63;80.66;100019.09;5102021;28;20047;-62
2023/05/31 03:59:26;;;;;;;7.03;4.10;;;;;;;12.59;82.78;100019.22;5092437;28;20474;-63
2023/05/31 04:01:53;;;;;;;8.07;4.25;;;;;;;11.93;89.44;100022.03;5096510;28;20036;-63
2023/05/31 04:04:24;;;;;;;10.35;4.13;;;;;;;14.11;79.62;100020.41;5097627;28;20039;-65
2023/05/31 04:06:51;;;;;;;7.07;4.22;;;;;;;15.21;72.16;100023.22;5104315;28;20074;-62
2023/05/31 04:09:21;;;;;;;8.88;3.80;;;;;;;15.81;69.27;100017.88;5097110;28;20107;-63
2023/05/31 04:11:49;;;;;;;9.48;3.95;;;;;;;16.65;65.09;100021.66;5100845;28;20039;-65
2023/05/31 04:14:16;;;;;;;12.93;4.03;;;;;;;17.45;59.53;100028.50;5103872;28;20044;-63
2023/05/31 04:16:46;;;;;;;9.95;4.00;;;;;;;16.92;62.32;100027.78;5094483;28;20109;-64
2023/05/31 04:19:14;;;;;;;;;;;;;;;17.42;62.36;100034.44;5114981;27;20040;-63
2023/05/31 04:21:42;;;;;;;10.07;4.20;;;;;;;18.95;54.83;100032.72;5098876;28;19920;-64
2023/05/31 04:24:10;;;;;;;7.45;3.47;;;;;;;18.66;53.58;100041.47;5096812;28;20052;-65
2023/05/31 04:26:37;;;;;;;12.88;5.05;;;;;;;18.21;54.53;100032.31;5096548;28;20163;-64
2023/05/31 04:29:06;;;;;;;13.68;4.15;;;;;;;18.79;53.24;100039.28;5095717;28;20093;-64
2023/05/31 04:31:36;;;;;;;10.18;3.95;;;;;;;16.55;58.80;100036.81;5102472;28;20061;-64
2023/05/31 04:34:05;;;;;;;8.30;4.07;;;;;;;16.23;66.53;100036.88;5094738;28;20067;-64
2023/05/31 04:36:36;;;;;;;9.25;4.15;;;;;;;18.48;56.76;100040.16;5105379;28;20126;-63
2023/05/31 04:39:09;;;;;;;10.45;3.72;;;;;;;19.49;52.32;100041.91;5097889;28;20116;-64
2023/05/31 04:41:39;;;;;;;9.73;4.07;;;;;;;20.29;50.09;100048.94;5097005;28;20097;-63
2023/05/31 04:44:06;;;;;;;8.05;4.10;;;;;;;19.39;51.08;100042.78;5098200;28;20397;-63
2023/05/31 04:46:33;;;;;;;11.43;4.03;;;;;;;20.53;48.76;100043.53;5100479;28;20125;-63
2023/05/31 04:49:00;;;;;;;8.13;3.65;;;;;;;20.60;48.11;100050.28;5096292;28;20143;-63
2023/05/31 04:51:29;;;;;;;9.40;4.10;;;;;;;21.39;46.75;100049.88;5097785;28;20059;-64
2023/05/31 04:53:56;;;;;;;9.55;3.95;;;;;;;21.73;46.39;100049.63;5091541;28;20057;-64
2023/05/31 04:56:27;;;;;;;10.10;3.70;;;;;;;22.36;44.91;100044.78;5095504;28;20048;-64
2023/05/31 04:58:59;;;;;;;9.32;4.20;;;;;;;22.24;44.60;100045.28;5094501;28;20062;-64
2023/05/31 05:01:26;;;;;;;6.88;3.85;;;;;;;21.34;46.71;100041.72;5102121;28;20047;-64
2023/05/31 05:04:07;;;;;;;8.75;4.32;;;;;;;22.22;45.05;100049.44;5098104;28;20055;-64
2023/05/31 05:06:37;;;;;;;10.35;4.57;;;;;;;21.93;45.91;100053.16;5098613;28;20337;-61
2023/05/31 05:09:05;;;;;;;21.50;4.80;;;;;;;23.98;43.13;100054.50;5104323;28;20086;-64
2023/05/31 05:11:36;;;;;;;17.45;5.35;;;;;;;23.09;44.19;100058.69;5082779;28;20051;-63
2023/05/31 05:14:03;;;;;;;12.13;4.07;;;;;;;24.50;41.84;100054.84;5100134;28;20139;-63
2023/05/31 05:16:31;;;;;;;24.58;4.97;;;;;;;24.24;41.89;100063.72;5102013;28;20092;-63
2023/05/31 05:18:58;;;;;;;26.40;4.82;;;;;;;23.82;42.37;100059.56;5101286;28;20032;-63
2023/05/31 05:21:28;;;;;;;17.08;4.82;;;;;;;22.77;44.59;100063.16;5098324;28;20390;-63
2023/05/31 05:23:57;;;;;;;24.10;5.25;;;;;;;23.35;44.06;100062.50;5092272;28;20136;-63
2023/05/31 05:26:24;;;;;;;19.77;5.07;;;;;;;24.41;41.61;100063.00;5100852;28;20594;-63
2023/05/31 05:28:51;;;;;;;14.77;4.63;;;;;;;24.31;41.91;100068.72;5096279;28;20051;-63
2023/05/31 05:31:18;;;;;;;19.92;5.10;;;;;;;24.52;41.41;100063.56;5102212;28;20098;-63
2023/05/31 05:33:47;;;;;;;20.35;5.13;;;;;;;24.45;41.83;100063.16;5103241;28;20044;-63
2023/05/31 05:36:14;;;;;;;21.90;5.40;;;;;;;25.01;41.04;100063.56;5083050;28;20048;-63
2023/05/31 05:38:49;;;;;;;19.17;5.05;;;;;;;25.17;40.79;100057.34;5103103;28;20169;-64
2023/05/31 05:41:19;;;;;;;17.40;4.70;;;;;;;24.74;41.42;100070.91;5099080;28;20047;-63
2023/05/31 05:43:48;;;;;;;20.13;5.03;;;;;;;24.82;41.48;100066.56;5098636;28;20037;-63
2023/05/31 05:46:23;;;;;;;13.23;4.55;;;;;;;25.52;40.63;100062.88;5087311;28;20525;-63
2023/05/31 05:48:50;;;;;;;12.55;4.82;;;;;;;25.81;39.77;100064.16;5115706;28;20039;-63
2023/05/31 05:51:20;;;;;;;18.45;4.88;;;;;;;26.08;39.35;100056.72;5104509;28;20039;-63
2023/05/31 05:53:50;;;;;;;20.52;5.47;;;;;;;25.67;39.63;100069.81;5083395;28;20067;-64
2023/05/31 05:56:22;;;;;;;11.73;4.57;;;;;;;25.38;40.29;100068.50;5104280;28;20043;-63
2023/05/31 05:58:55;;;;;;;19.30;5.20;;;;;;;25.26;40.58;100059.28;5083087;28;20056;-63
2023/05/31 06:01:44;;;;;;;21.35;5.25;;;;;;;25.98;39.27;100058.66;5096254;28;20067;-63
2023/05/31 06:04:14;;;;;;;24.35;5.90;;;;;;;25.78;40.34;100062.06;5090801;28;20048;-63
2023/05/31 06:06:43;;;;;;;27.70;6.07;;;;;;;25.79;40.65;100059.00;5103711;28;20047;-63
2023/05/31 06:09:15;;;;;;;25.83;6.60;;;;;;;25.83;40.14;100057.22;5102701;28;20062;-62
2023/05/31 06:11:44;;;;;;;26.35;5.85;;;;;;;26.22;39.49;100054.59;5096143;28;20051;-62
2023/05/31 06:14:14;;;;;;;28.42;6.75;;;;;;;26.62;38.55;100057.06;5094035;28;20568;-64
2023/05/31 06:16:46;;;;;;;31.85;6.90;;;;;;;25.24;40.88;100064.31;5081397;28;20047;-63
2023/05/31 06:19:14;;;;;;;36.17;6.73;;;;;;;26.70;38.84;100058.97;5099287;28;20050;-63
2023/05/31 06:21:42;;;;;;;41.33;6.65;;;;;;;26.40;39.85;100061.63;5094313;28;20317;-63
2023/05/31 06:24:09;;;;;;;32.78;6.20;;;;;;;25.82;40.10;100058.34;5093555;28;20040;-62
2023/05/31 06:26:40;;;;;;;33.47;6.30;;;;;;;26.31;39.56;100066.38;5087958;28;20176;-63
2023/05/31 06:29:14;;;;;;;35.65;6.00;;;;;;;27.62;37.83;100071.22;5101160;28;20138;-62
2023/05/31 06:32:08;;;;;;;25.85;6.45;;;;;;;26.60;39.42;100073.88;5127926;27;20051;-62
2023/05/31 06:34:41;;;;;;;25.60;5.45;;;;;;;26.76;38.62;100071.41;5081940;28;20047;-62
2023/05/31 06:37:17;;;;;;;23.63;5.55;;;;;;;27.43;37.42;100071.66;5102085;28;20402;-62
2023/05/31 06:39:45;;;;;;;19.40;5.43;;;;;;;27.07;36.87;100071.06;5101082;28;20040;-62
2023/05/31 06:42:16;;;;;;;15.10;4.72;;;;;;;26.89;37.71;100069.56;5096976;28;20066;-62
2023/05/31 06:44:47;;;;;;;20.85;4.97;;;;;;;25.91;38.36;100072.09;5104964;28;20048;-62
2023/05/31 06:47:27;;;;;;;11.55;4.30;;;;;;;26.12;38.53;100060.44;5099772;28;20036;-62
2023/05/31 06:50:14;;;;;;;15.07;4.82;;;;;;;24.87;40.23;100066.44;5084160;28;20402;-62
2023/05/31 06:52:51;;;;;;;11.77;3.85;;;;;;;25.01;40.50;100053.41;5094121;28;20040;-63
2023/05/31 06:55:50;;;;;;;12.60;4.38;;;;;;;24.91;40.64;100062.75;5089031;28;20039;-62
2023/05/31 06:58:21;;;;;;;15.05;4.82;;;;;;;24.29;42.03;100060.84;5100756;28;20119;-63
2023/05/31 07:00:52;;;;;;;9.38;4.00;;;;;;;23.33;43.16;100066.66;5098513;28;20044;-63
2023/05/31 07:03:21;;;;;;;14.18;4.30;;;;;;;25.37;39.70;100055.09;5104656;28;20052;-62
2023/05/31 07:05:49;;;;;;;15.43;4.75;;;;;;;24.39;40.75;100056.19;5077897;28;20050;-63
2023/05/31 07:08:19;;;;;;;14.15;4.72;;;;;;;25.18;39.91;100052.66;5102486;28;20055;-62
2023/05/31 07:11:06;;;;;;;14.88;4.57;;;;;;;24.45;41.65;100057.69;5095797;28;20073;-62
2023/05/31 07:13:37;;;;;;;17.73;4.40;;;;;;;24.78;41.02;100062.84;5107047;27;20063;-62
2023/05/31 07:16:09;;;;;;;14.40;4.55;;;;;;;26.34;38.71;100053.91;5098471;28;20468;-62
2023/05/31 07:18:43;;;;;;;17.15;3.83;;;;;;;26.41;38.24;100049.53;5095341;28;20511;-62
2023/05/31 07:21:15;;;;;;;10.15;4.20;;;;;;;26.70;37.60;100047.97;5100528;28;20055;-63
2023/05/31 07:23:42;;;;;;;25.02;4.88;;;;;;;25.16;40.82;100047.50;5095074;28;20430;-62
2023/05/31 07:26:09;;;;;;;20.58;4.50;;;;;;;25.79;39.61;100039.78;5101746;28;20412;-62
2023/05/31 07:28:36;;;;;;;13.40;4.07;;;;;;;26.46;37.57;100041.09;5100601;28;20032;-63
2023/05/31 07:31:04;;;;;;;21.02;4.57;;;;;;;25.74;40.38;100041.88;5097592;28;20043;-62
2023/05/31 07:33:32;;;;;;;18.63;4.47;;;;;;;23.84;39.78;100049.13;5107009;28;20046;-62
2023/05/31 07:36:00;;;;;;;31.17;5.60;;;;;;;23.87;43.55;100038.34;5103765;28;20044;-61
2023/05/31 07:38:27;;;;;;;16.52;4.53;;;;;;;24.86;40.27;100031.91;5099412;28;20047;-64
2023/05/31 07:40:55;;;;;;;18.55;4.40;;;;;;;25.77;38.16;100030.25;5100901;28;20096;-64
2023/05/31 07:43:24;;;;;;;13.02;4.05;;;;;;;26.38;37.28;100022.69;5100327;28;20040;-62
2023/05/31 07:45:54;;;;;;;12.27;4.30;;;;;;;25.45;38.48;100035.09;5101868;28;20419;-64
2023/05/31 07:48:21;;;;;;;16.38;4.85;;;;;;;24.52;41.41;100041.63;5099011;28;20490;-62
2023/05/31 07:50:49;;;;;;;20.83;5.20;;;;;;;25.74;39.47;100034.44;5106502;28;20551;-62
2023/05/31 07:53:17;;;;;;;21.88;4.70;;;;;;;26.38;38.38;100021.88;5104609;28;20481;-62
2023/05/31 07:55:45;;;;;;;15.63;4.38;;;;;;;27.46;36.32;100021.47;5099703;28;20047;-62
2023/05/31 07:58:16;;;;;;;13.05;4.55;;;;;;;26.49;38.76;100016.84;5102530;28;20064;-62
2023/05/31 08:00:44;;;;;;;12.93;3.90;;;;;;;27.65;37.47;100024.53;5097208;27;20044;-63
2023/05/31 08:03:18;;;;;;;17.87;4.43;;;;;;;27.48;36.62;100024.69;5098316;28;20047;-63
2023/05/31 08:05:50;;;;;;;11.35;3.90;;;;;;;25.82;35.89;100028.13;5093392;28;20318;-63
2023/05/31 08:08:17;;;;;;;18.67;3.88;;;;;;;26.63;35.67;100023.75;5103298;28;20050;-63
2023/05/31 08:10:44;;;;;;;10.57;3.92;;;;;;;25.80;36.47;100029.59;5103512;28;20054;-63
2023/05/31 08:13:12;;;;;;;11.48;3.85;;;;;;;24.82;38.91;100028.19;5102105;28;20101;-63
2023/05/31 08:15:39;;;;;;;11.35;4.00;;;;;;;26.91;36.43;100017.78;5101813;28;20063;-63
2023/05/31 08:18:06;;;;;;;10.43;3.90;;;;;;;25.89;36.93;100016.69;5100778;28;20044;-63
2023/05/31 08:20:36;;;;;;;12.20;4.00;;;;;;;25.31;37.38;100017.97;5101851;28;20043;-63
2023/05/31 08:23:05;;;;;;;18.17;4.57;;;;;;;24.58;38.65;100023.13;5094517;28;21456;-63
2023/05/31 08:25:32;;;;;;;11.65;4.00;;;;;;;26.82;36.28;100020.56;5095917;28;20464;-64
2023/05/31 08:27:59;;;;;;;8.85;3.75;;;;;;;24.96;38.42;100023.38;5105583;28;20054;-63
2023/05/31 08:30:26;;;;;;;22.33;4.35;;;;;;;26.07;36.94;100013.91;5098556;28;20125;-62
2023/05/31 08:32:54;;;;;;;17.13;4.22;;;;;;;26.67;35.27;100018.41;5096067;28;20034;-63
2023/05/31 08:35:21;;;;;;;16.83;3.67;;;;;;;25.75;35.97;100002.31;5097991;28;20520;-63
2023/05/31 08:37:48;;;;;;;14.93;4.05;;;;;;;27.08;34.84;100005.84;5101262;28;20040;-63
2023/05/31 08:40:17;;;;;;;12.57;3.67;;;;;;;27.03;34.48;100008.78;5100235;28;20521;-63
2023/05/31 08:42:46;;;;;;;12.38;3.55;;;;;;;26.27;36.38;100002.22;5098137;28;20076;-62
2023/05/31 08:45:13;;;;;;;10.18;3.47;;;;;;;25.18;35.74;100001.34;5093894;28;20040;-63
2023/05/31 08:47:43;;;;;;;9.43;3.67;;;;;;;23.83;37.83;100009.97;5099592;28;20106;-63
2023/05/31 08:50:11;;;;;;;13.48;3.53;;;;;;;24.67;37.47;99994.63;5100507;28;20071;-62
2023/05/31 08:52:39;;;;;;;20.60;3.95;;;;;;;25.87;35.23;99996.19;5100210;28;20036;-63
2023/05/31 08:55:09;;;;;;;12.52;3.78;;;;;;;24.46;37.79;100020.97;5099430;28;20235;-63
2023/05/31 08:57:38;;;;;;;14.27;3.58;;;;;;;24.58;37.15;100012.16;5102862;28;20056;-63
2023/05/31 09:00:10;;;;;;;16.52;3.80;;;;;;;25.21;36.92;100018.28;5099816;28;20467;-63
2023/05/31 09:02:41;;;;;;;14.32;3.70;;;;;;;23.76;36.09;100004.13;5095230;28;20358;-62
2023/05/31 09:05:12;;;;;;;11.20;3.30;;;;;;;23.65;34.91;100002.72;5098033;28;20032;-63
2023/05/31 09:07:40;;;;;;;9.40;2.95;;;;;;;23.54;34.06;100015.84;5105033;28;20086;-63
2023/05/31 09:10:13;;;;;;;10.00;3.00;;;;;;;22.73;35.23;100005.56;5104579;28;20043;-63
2023/05/31 09:12:42;;;;;;;7.55;2.92;;;;;;;23.60;35.31;100005.59;5098968;28;20109;-63
2023/05/31 09:15:15;;;;;;;11.47;3.50;;;;;;;23.16;35.48;99988.00;5097555;28;20524;-62
2023/05/31 09:17:46;;;;;;;9.65;3.50;;;;;;;23.22;34.11;99989.53;5102202;28;20135;-62
2023/05/31 09:20:17;;;;;;;19.42;3.42;;;;;;;23.35;34.69;99996.88;5101599;28;20059;-63
2023/05/31 09:22:48;;;;;;;12.27;3.38;;;;;;;22.75;35.65;100010.72;5096753;28;20036;-63
2023/05/31 09:25:15;;;;;;;9.20;3.70;;;;;;;22.57;35.61;99996.06;5096207;28;20537;-62
2023/05/31 09:27:43;;;;;;;10.20;2.63;;;;;;;23.43;34.42;99993.38;5100903;28;20048;-62
2023/05/31 09:30:12;;;;;;;15.75;3.30;;;;;;;23.50;34.63;99989.44;5094597;28;20036;-63
2023/05/31 09:32:39;;;;;;;9.55;3.00;;;;;;;23.80;34.06;99985.97;5100806;28;20518;-62
2023/05/31 09:35:12;;;;;;;10.25;3.20;;;;;;;22.47;34.54;99980.69;5101805;28;20121;-62
2023/05/31 09:37:43;;;;;;;9.45;2.88;;;;;;;22.81;34.54;99976.69;5094549;28;20036;-63
2023/05/31 09:40:11;;;;;;;13.30;3.13;;;;;;;23.81;33.38;99982.13;5100880;28;20046;-63
2023/05/31 09:42:38;;;;;;;10.20;2.97;;;;;;;23.50;33.69;99973.81;5099174;28;20134;-63
2023/05/31 09:45:08;;;;;;;9.90;2.90;;;;;;;23.77;33.75;99978.38;5104155;28;20048;-63
2023/05/31 09:47:37;;;;;;;9.80;2.80;;;;;;;23.51;34.21;99980.09;5104923;28;20401;-63
2023/05/31 09:50:05;;;;;;;10.02;3.22;;;;;;;23.36;34.80;99962.91;5093476;28;20051;-63
2023/05/31 09:52:37;;;;;;;8.20;3.08;;;;;;;23.21;33.79;99968.75;5098321;28;20039;-63
2023/05/31 09:55:06;;;;;;;7.30;3.20;;;;;;;22.97;33.69;99958.91;5099099;28;20035;-62
2023/05/31 09:57:33;;;;;;;10.38;3.03;;;;;;;23.82;33.19;99959.09;5097870;28;20127;-63
2023/05/31 10:00:00;;;;;;;8.88;3.47;;;;;;;23.22;33.64;99952.03;5097017;28;20044;-62
2023/05/31 10:02:29;;;;;;;7.13;2.65;;;;;;;23.47;33.59;99958.81;5096707;28;20051;-63
2023/05/31 10:04:56;;;;;;;9.07;2.80;;;;;;;23.35;33.44;99944.91;5096495;28;20063;-62
2023/05/31 10:07:23;;;;;;;10.35;3.25;;;;;;;23.24;33.69;99951.75;5097194;28;20054;-62
2023/05/31 10:09:50;;;;;;;6.30;3.00;;;;;;;23.81;33.67;99942.97;5099566;28;20425;-63
2023/05/31 10:12:18;;;;;;;7.90;2.55;;;;;;;23.48;32.91;99952.22;5090949;28;20509;-62
2023/05/31 10:14:47;;;;;;;6.28;2.67;;;;;;;23.56;32.61;99941.66;5102822;28;20058;-62
2023/05/31 10:17:15;;;;;;;7.15;2.88;;;;;;;23.78;33.90;99941.66;5102975;28;20437;-62
2023/05/31 10:19:48;;;;;;;10.13;2.97;;;;;;;23.08;33.74;99953.19;5102348;28;20093;-62
2023/05/31 10:22:15;;;;;;;9.55;3.00;;;;;;;22.63;33.30;99951.13;5096721;28;20044;-62
2023/05/31 10:24:55;;;;;;;8.27;2.88;;;;;;;23.53;32.99;99939.56;5105882;27;20077;-62
2023/05/31 10:27:27;;;;;;;12.77;3.20;;;;;;;22.95;33.26;99941.97;5097453;28;20561;-62
2023/05/31 10:29:54;;;;;;;8.25;2.70;;;;;;;22.59;33.91;99942.75;5098181;28;20146;-62
2023/05/31 10:32:24;;;;;;;11.13;3.05;;;;;;;23.03;34.28;99932.25;5092748;28;20071;-62
2023/05/31 10:34:52;;;;;;;6.60;2.50;;;;;;;23.42;33.57;99928.06;5099102;28;20489;-62
2023/05/31 10:37:19;;;;;;;6.20;3.13;;;;;;;23.75;33.35;99920.41;5095964;28;20131;-62
2023/05/31 10:39:49;;;;;;;7.32;2.70;;;;;;;23.59;32.92;99916.44;5103529;28;20135;-62
2023/05/31 10:42:21;;;;;;;11.38;3.08;;;;;;;23.14;33.67;99921.88;5101056;28;20512;-62
2023/05/31 10:45:04;;;;;;;8.77;2.90;;;;;;;22.75;33.15;99915.88;5094994;28;20123;-62
2023/05/31 10:47:34;;;;;;;6.25;2.83;;;;;;;23.27;33.36;99912.03;5096435;28;20048;-62
2023/05/31 10:50:04;;;;;;;11.18;2.67;;;;;;;23.06;33.84;99895.28;5102449;28;20047;-63
2023/05/31 10:52:31;;;;;;;11.60;2.55;;;;;;;23.43;32.89;99908.59;5093131;28;20040;-62
2023/05/31 10:55:16;;;;;;;8.85;2.63;;;;;;;22.99;33.21;99909.41;5100934;28;20401;-62
2023/05/31 10:57:43;;;;;;;5.30;2.40;;;;;;;23.32;33.22;99917.38;5096867;28;20044;-62
2023/05/31 11:00:14;;;;;;;5.28;2.33;;;;;;;23.01;32.79;99907.13;5101456;28;20109;-62
2023/05/31 11:02:47;;;;;;;8.00;3.13;;;;;;;23.55;33.05;99901.75;5094483;28;20502;-62
2023/05/31 11:05:26;;;;;;;7.75;2.38;;;;;;;22.82;33.72;99910.00;5098865;28;20065;-64
2023/05/31 11:07:54;;;;;;;9.93;2.50;;;;;;;23.16;33.74;99908.72;5099541;28;20166;-62
2023/05/31 11:10:28;;;;;;;7.68;2.35;;;;;;;23.29;33.06;99905.13;5104619;28;20339;-62
2023/05/31 11:12:57;;;;;;;7.47;2.38;;;;;;;23.09;32.92;99908.31;5103983;27;20104;-62
2023/05/31 11:15:24;;;;;;;8.77;2.60;;;;;;;23.15;33.95;99896.16;5100212;28;20135;-64
2023/05/31 11:17:52;;;;;;;10.13;2.72;;;;;;;22.94;33.72;99902.09;5102717;28;20051;-63
2023/05/31 11:20:19;;;;;;;10.27;2.47;;;;;;;22.82;34.15;99899.88;5099681;28;20103;-64
2023/05/31 11:22:48;;;;;;;8.13;2.40;;;;;;;22.73;34.55;99900.91;5095104;28;20051;-63
2023/05/31 11:25:21;;;;;;;8.25;2.80;;;;;;;23.06;33.80;99890.63;5093431;28;20501;-63
2023/05/31 11:27:49;;;;;;;10.52;2.58;;;;;;;23.24;34.38;99895.13;5100045;28;20134;-63
2023/05/31 11:30:16;;;;;;;9.82;2.30;;;;;;;22.78;33.80;99887.13;5101046;28;20093;-63
2023/05/31 11:33:14;;;;;;;15.02;2.60;;;;;;;23.77;33.56;99893.53;5099476;28;20492;-62